sensor_id;sensor_type;location;lat;lon;timestamp;P1;durP1;ratioP1;P2;durP2;ratioP2
72115;SDS011;59991;52.140;5.428;2022-10-16T00:00:13;3.35;;;2.05;;
72115;SDS011;59991;52.140;5.428;2022-10-16T00:00:44;3.55;;;1.85;;
72115;SDS011;59991;52.140;5.428;2022-10-16T00:01:18;4.10;;;2.27;;
72115;SDS011;59991;52.140;5.428;2022-10-16T00:01:54;8.48;;;2.03;;
72115;SDS011;59991;52.140;5.428;2022-10-16T00:02:28;2.83;;;1.50;;
72115;SDS011;59991;52.140;5.428;2022-10-16T00:03:02;2.45;;;2.00;;
72115;SDS011;59991;52.140;5.428;2022-10-16T00:03:36;4.28;;;1.75;;
72115;SDS011;59991;52.140;5.428;2022-10-16T00:04:09;5.55;;;2.17;;
72115;SDS011;59991;52.140;5.428;2022-10-16T00:04:41;8.10;;;2.30;;
72115;SDS011;59991;52.140;5.428;2022-10-16T00:05:12;5.35;;;2.22;;
72115;SDS011;59991;52.140;5.428;2022-10-16T00:05:47;4.72;;;2.67;;
72115;SDS011;59991;52.140;5.428;2022-10-16T00:06:21;3.20;;;1.17;;
72115;SDS011;59991;52.140;5.428;2022-10-16T00:06:53;4.93;;;1.80;;
72115;SDS011;59991;52.140;5.428;2022-10-16T00:07:24;2.72;;;1.70;;
72115;SDS011;59991;52.140;5.428;2022-10-16T00:07:57;5.85;;;1.95;;
72115;SDS011;59991;52.140;5.428;2022-10-16T00:08:28;4.90;;;1.77;;
72115;SDS011;59991;52.140;5.428;2022-10-16T00:09:01;5.85;;;2.10;;
72115;SDS011;59991;52.140;5.428;2022-10-16T00:09:35;5.32;;;2.13;;
72115;SDS011;59991;52.140;5.428;2022-10-16T00:10:09;6.82;;;1.85;;
72115;SDS011;59991;52.140;5.428;2022-10-16T00:10:43;3.22;;;2.00;;
72115;SDS011;59991;52.140;5.428;2022-10-16T00:11:19;5.80;;;2.15;;
72115;SDS011;59991;52.140;5.428;2022-10-16T00:11:58;3.50;;;2.03;;
72115;SDS011;59991;52.140;5.428;2022-10-16T00:12:29;2.80;;;2.00;;
72115;SDS011;59991;52.140;5.428;2022-10-16T00:13:01;5.28;;;2.60;;
72115;SDS011;59991;52.140;5.428;2022-10-16T00:13:33;3.88;;;2.28;;
72115;SDS011;59991;52.140;5.428;2022-10-16T00:14:11;3.22;;;2.40;;
72115;SDS011;59991;52.140;5.428;2022-10-16T00:14:47;9.48;;;3.28;;
72115;SDS011;59991;52.140;5.428;2022-10-16T00:15:24;7.35;;;2.00;;
72115;SDS011;59991;52.140;5.428;2022-10-16T00:15:56;3.67;;;2.15;;
72115;SDS011;59991;52.140;5.428;2022-10-16T00:16:30;5.55;;;2.22;;
72115;SDS011;59991;52.140;5.428;2022-10-16T00:17:05;5.25;;;1.95;;
72115;SDS011;59991;52.140;5.428;2022-10-16T00:17:40;5.32;;;1.60;;
72115;SDS011;59991;52.140;5.428;2022-10-16T00:18:15;4.47;;;2.07;;
72115;SDS011;59991;52.140;5.428;2022-10-16T00:18:50;5.45;;;2.25;;
72115;SDS011;59991;52.140;5.428;2022-10-16T00:19:21;5.93;;;2.10;;
72115;SDS011;59991;52.140;5.428;2022-10-16T00:19:58;5.05;;;1.90;;
72115;SDS011;59991;52.140;5.428;2022-10-16T00:20:35;3.97;;;1.80;;
72115;SDS011;59991;52.140;5.428;2022-10-16T00:21:12;5.45;;;2.22;;
72115;SDS011;59991;52.140;5.428;2022-10-16T00:21:45;6.43;;;1.95;;
72115;SDS011;59991;52.140;5.428;2022-10-16T00:22:17;5.25;;;2.05;;
72115;SDS011;59991;52.140;5.428;2022-10-16T00:23:00;3.70;;;2.20;;
72115;SDS011;59991;52.140;5.428;2022-10-16T00:23:35;5.43;;;2.35;;
72115;SDS011;59991;52.140;5.428;2022-10-16T00:24:10;7.37;;;2.40;;
72115;SDS011;59991;52.140;5.428;2022-10-16T00:24:42;3.38;;;1.90;;
72115;SDS011;59991;52.140;5.428;2022-10-16T00:25:18;4.00;;;2.10;;
72115;SDS011;59991;52.140;5.428;2022-10-16T00:25:56;2.40;;;1.90;;
72115;SDS011;59991;52.140;5.428;2022-10-16T00:26:35;4.32;;;1.77;;
72115;SDS011;59991;52.140;5.428;2022-10-16T00:27:09;4.30;;;2.05;;
72115;SDS011;59991;52.140;5.428;2022-10-16T00:27:41;5.50;;;1.73;;
72115;SDS011;59991;52.140;5.428;2022-10-16T00:28:13;4.63;;;1.65;;
72115;SDS011;59991;52.140;5.428;2022-10-16T00:28:50;4.55;;;2.28;;
72115;SDS011;59991;52.140;5.428;2022-10-16T00:29:26;10.35;;;2.30;;
72115;SDS011;59991;52.140;5.428;2022-10-16T00:29:57;4.00;;;1.57;;
72115;SDS011;59991;52.140;5.428;2022-10-16T00:30:29;3.58;;;1.90;;
72115;SDS011;59991;52.140;5.428;2022-10-16T00:31:03;3.25;;;1.88;;
72115;SDS011;59991;52.140;5.428;2022-10-16T00:31:38;3.72;;;2.28;;
72115;SDS011;59991;52.140;5.428;2022-10-16T00:32:10;4.65;;;2.38;;
72115;SDS011;59991;52.140;5.428;2022-10-16T00:32:44;9.60;;;2.33;;
72115;SDS011;59991;52.140;5.428;2022-10-16T00:33:15;4.10;;;2.03;;
72115;SDS011;59991;52.140;5.428;2022-10-16T00:33:47;6.50;;;2.50;;
72115;SDS011;59991;52.140;5.428;2022-10-16T00:34:19;6.53;;;2.20;;
72115;SDS011;59991;52.140;5.428;2022-10-16T00:34:53;8.02;;;2.10;;
72115;SDS011;59991;52.140;5.428;2022-10-16T00:35:26;4.17;;;1.63;;
72115;SDS011;59991;52.140;5.428;2022-10-16T00:35:58;3.90;;;2.33;;
72115;SDS011;59991;52.140;5.428;2022-10-16T00:36:34;3.35;;;2.08;;
72115;SDS011;59991;52.140;5.428;2022-10-16T00:37:14;5.30;;;2.30;;
72115;SDS011;59991;52.140;5.428;2022-10-16T00:37:45;5.63;;;2.08;;
72115;SDS011;59991;52.140;5.428;2022-10-16T00:38:19;6.10;;;2.22;;
72115;SDS011;59991;52.140;5.428;2022-10-16T00:38:51;2.88;;;2.35;;
72115;SDS011;59991;52.140;5.428;2022-10-16T00:39:26;5.03;;;3.20;;
72115;SDS011;59991;52.140;5.428;2022-10-16T00:40:00;3.78;;;2.25;;
72115;SDS011;59991;52.140;5.428;2022-10-16T00:40:32;4.63;;;2.40;;
72115;SDS011;59991;52.140;5.428;2022-10-16T00:41:07;3.90;;;1.77;;
72115;SDS011;59991;52.140;5.428;2022-10-16T00:41:40;3.75;;;2.00;;
72115;SDS011;59991;52.140;5.428;2022-10-16T00:42:15;4.43;;;2.42;;
72115;SDS011;59991;52.140;5.428;2022-10-16T00:42:49;3.70;;;1.92;;
72115;SDS011;59991;52.140;5.428;2022-10-16T00:43:40;6.18;;;2.28;;
72115;SDS011;59991;52.140;5.428;2022-10-16T00:45:15;5.45;;;2.55;;
72115;SDS011;59991;52.140;5.428;2022-10-16T00:45:47;3.80;;;2.10;;
72115;SDS011;59991;52.140;5.428;2022-10-16T00:46:20;6.93;;;2.15;;
72115;SDS011;59991;52.140;5.428;2022-10-16T00:46:54;4.70;;;1.98;;
72115;SDS011;59991;52.140;5.428;2022-10-16T00:47:29;2.70;;;1.97;;
72115;SDS011;59991;52.140;5.428;2022-10-16T00:48:03;5.90;;;2.30;;
72115;SDS011;59991;52.140;5.428;2022-10-16T00:48:40;2.88;;;2.03;;
72115;SDS011;59991;52.140;5.428;2022-10-16T00:49:16;4.07;;;2.30;;
72115;SDS011;59991;52.140;5.428;2022-10-16T00:50:02;2.25;;;1.80;;
72115;SDS011;59991;52.140;5.428;2022-10-16T00:50:57;4.00;;;2.38;;
72115;SDS011;59991;52.140;5.428;2022-10-16T00:51:33;3.85;;;2.20;;
72115;SDS011;59991;52.140;5.428;2022-10-16T00:52:07;4.38;;;2.58;;
72115;SDS011;59991;52.140;5.428;2022-10-16T00:52:41;4.60;;;1.83;;
72115;SDS011;59991;52.140;5.428;2022-10-16T00:53:17;6.47;;;2.17;;
72115;SDS011;59991;52.140;5.428;2022-10-16T00:53:49;3.93;;;2.40;;
72115;SDS011;59991;52.140;5.428;2022-10-16T00:54:27;4.38;;;2.45;;
72115;SDS011;59991;52.140;5.428;2022-10-16T00:55:04;9.13;;;2.60;;
72115;SDS011;59991;52.140;5.428;2022-10-16T00:55:39;4.93;;;1.85;;
72115;SDS011;59991;52.140;5.428;2022-10-16T00:56:12;7.57;;;2.83;;
72115;SDS011;59991;52.140;5.428;2022-10-16T00:56:48;3.63;;;2.55;;
72115;SDS011;59991;52.140;5.428;2022-10-16T00:57:21;6.13;;;3.00;;
72115;SDS011;59991;52.140;5.428;2022-10-16T00:57:52;3.55;;;2.63;;
72115;SDS011;59991;52.140;5.428;2022-10-16T00:58:24;6.75;;;3.08;;
72115;SDS011;59991;52.140;5.428;2022-10-16T00:58:56;7.13;;;2.58;;
72115;SDS011;59991;52.140;5.428;2022-10-16T00:59:33;5.40;;;2.90;;
72115;SDS011;59991;52.140;5.428;2022-10-16T01:00:10;6.28;;;3.33;;
72115;SDS011;59991;52.140;5.428;2022-10-16T01:00:43;3.67;;;2.35;;
72115;SDS011;59991;52.140;5.428;2022-10-16T01:01:15;4.72;;;2.70;;
72115;SDS011;59991;52.140;5.428;2022-10-16T01:01:50;3.45;;;2.58;;
72115;SDS011;59991;52.140;5.428;2022-10-16T01:02:25;6.05;;;2.85;;
72115;SDS011;59991;52.140;5.428;2022-10-16T01:02:58;5.57;;;2.78;;
72115;SDS011;59991;52.140;5.428;2022-10-16T01:03:33;5.03;;;2.88;;
72115;SDS011;59991;52.140;5.428;2022-10-16T01:04:06;6.10;;;3.45;;
72115;SDS011;59991;52.140;5.428;2022-10-16T01:04:42;6.63;;;2.95;;
72115;SDS011;59991;52.140;5.428;2022-10-16T01:05:15;6.47;;;2.97;;
72115;SDS011;59991;52.140;5.428;2022-10-16T01:05:53;4.32;;;3.25;;
72115;SDS011;59991;52.140;5.428;2022-10-16T01:06:49;4.35;;;3.15;;
72115;SDS011;59991;52.140;5.428;2022-10-16T01:07:53;4.72;;;2.85;;
72115;SDS011;59991;52.140;5.428;2022-10-16T01:08:37;7.60;;;3.10;;
72115;SDS011;59991;52.140;5.428;2022-10-16T01:09:17;6.68;;;3.00;;
72115;SDS011;59991;52.140;5.428;2022-10-16T01:10:06;4.80;;;2.90;;
72115;SDS011;59991;52.140;5.428;2022-10-16T01:11:44;4.30;;;2.92;;
72115;SDS011;59991;52.140;5.428;2022-10-16T01:13:42;8.00;;;3.38;;
72115;SDS011;59991;52.140;5.428;2022-10-16T01:14:22;7.70;;;3.33;;
72115;SDS011;59991;52.140;5.428;2022-10-16T01:16:45;6.38;;;3.40;;
72115;SDS011;59991;52.140;5.428;2022-10-16T01:17:28;6.95;;;3.13;;
72115;SDS011;59991;52.140;5.428;2022-10-16T01:18:31;4.78;;;3.17;;
72115;SDS011;59991;52.140;5.428;2022-10-16T01:19:12;7.13;;;3.90;;
72115;SDS011;59991;52.140;5.428;2022-10-16T01:20:00;5.18;;;2.45;;
72115;SDS011;59991;52.140;5.428;2022-10-16T01:20:42;7.83;;;4.50;;
72115;SDS011;59991;52.140;5.428;2022-10-16T01:21:39;4.55;;;3.30;;
72115;SDS011;59991;52.140;5.428;2022-10-16T01:22:19;5.80;;;3.47;;
72115;SDS011;59991;52.140;5.428;2022-10-16T01:24:43;4.57;;;3.40;;
72115;SDS011;59991;52.140;5.428;2022-10-16T01:25:35;6.95;;;3.53;;
72115;SDS011;59991;52.140;5.428;2022-10-16T01:26:24;5.47;;;3.60;;
72115;SDS011;59991;52.140;5.428;2022-10-16T01:27:29;7.13;;;3.00;;
72115;SDS011;59991;52.140;5.428;2022-10-16T01:28:07;6.35;;;3.58;;
72115;SDS011;59991;52.140;5.428;2022-10-16T01:30:26;4.38;;;3.97;;
72115;SDS011;59991;52.140;5.428;2022-10-16T01:31:04;7.82;;;4.15;;
72115;SDS011;59991;52.140;5.428;2022-10-16T01:31:37;10.90;;;3.70;;
72115;SDS011;59991;52.140;5.428;2022-10-16T01:32:15;6.38;;;4.10;;
72115;SDS011;59991;52.140;5.428;2022-10-16T01:32:55;5.50;;;3.83;;
72115;SDS011;59991;52.140;5.428;2022-10-16T01:33:35;6.15;;;3.60;;
72115;SDS011;59991;52.140;5.428;2022-10-16T01:34:21;7.00;;;4.10;;
72115;SDS011;59991;52.140;5.428;2022-10-16T01:36:21;7.10;;;3.57;;
72115;SDS011;59991;52.140;5.428;2022-10-16T01:37:00;5.90;;;3.45;;
72115;SDS011;59991;52.140;5.428;2022-10-16T01:38:17;4.80;;;3.97;;
72115;SDS011;59991;52.140;5.428;2022-10-16T01:38:56;6.07;;;4.20;;
72115;SDS011;59991;52.140;5.428;2022-10-16T01:39:35;5.38;;;3.63;;
72115;SDS011;59991;52.140;5.428;2022-10-16T01:40:16;6.05;;;3.60;;
72115;SDS011;59991;52.140;5.428;2022-10-16T01:40:51;5.72;;;3.63;;
72115;SDS011;59991;52.140;5.428;2022-10-16T01:41:36;3.63;;;3.33;;
72115;SDS011;59991;52.140;5.428;2022-10-16T01:42:22;5.30;;;3.40;;
72115;SDS011;59991;52.140;5.428;2022-10-16T01:43:12;4.83;;;3.37;;
72115;SDS011;59991;52.140;5.428;2022-10-16T01:43:54;9.82;;;3.78;;
72115;SDS011;59991;52.140;5.428;2022-10-16T01:44:35;7.70;;;4.72;;
72115;SDS011;59991;52.140;5.428;2022-10-16T01:45:10;7.15;;;4.15;;
72115;SDS011;59991;52.140;5.428;2022-10-16T01:45:45;5.40;;;4.32;;
72115;SDS011;59991;52.140;5.428;2022-10-16T01:46:21;7.05;;;3.70;;
72115;SDS011;59991;52.140;5.428;2022-10-16T01:47:00;5.68;;;4.15;;
72115;SDS011;59991;52.140;5.428;2022-10-16T01:47:32;6.95;;;3.92;;
72115;SDS011;59991;52.140;5.428;2022-10-16T01:48:09;6.15;;;3.70;;
72115;SDS011;59991;52.140;5.428;2022-10-16T01:48:45;6.75;;;4.07;;
72115;SDS011;59991;52.140;5.428;2022-10-16T01:49:21;6.00;;;4.23;;
72115;SDS011;59991;52.140;5.428;2022-10-16T01:50:03;8.40;;;3.90;;
72115;SDS011;59991;52.140;5.428;2022-10-16T01:50:37;6.45;;;3.42;;
72115;SDS011;59991;52.140;5.428;2022-10-16T01:51:12;8.68;;;3.95;;
72115;SDS011;59991;52.140;5.428;2022-10-16T01:51:47;7.00;;;4.13;;
72115;SDS011;59991;52.140;5.428;2022-10-16T01:52:29;6.88;;;3.88;;
72115;SDS011;59991;52.140;5.428;2022-10-16T01:53:01;8.13;;;3.72;;
72115;SDS011;59991;52.140;5.428;2022-10-16T01:53:36;5.03;;;4.07;;
72115;SDS011;59991;52.140;5.428;2022-10-16T01:54:10;5.22;;;3.75;;
72115;SDS011;59991;52.140;5.428;2022-10-16T01:54:47;8.57;;;4.03;;
72115;SDS011;59991;52.140;5.428;2022-10-16T01:55:28;5.77;;;3.60;;
72115;SDS011;59991;52.140;5.428;2022-10-16T01:56:02;9.13;;;4.47;;
72115;SDS011;59991;52.140;5.428;2022-10-16T01:56:41;7.10;;;3.70;;
72115;SDS011;59991;52.140;5.428;2022-10-16T01:57:16;6.57;;;3.90;;
72115;SDS011;59991;52.140;5.428;2022-10-16T01:57:54;5.15;;;4.30;;
72115;SDS011;59991;52.140;5.428;2022-10-16T01:58:26;7.05;;;3.97;;
72115;SDS011;59991;52.140;5.428;2022-10-16T01:59:13;5.60;;;3.35;;
72115;SDS011;59991;52.140;5.428;2022-10-16T01:59:48;4.65;;;3.50;;
72115;SDS011;59991;52.140;5.428;2022-10-16T02:00:27;5.78;;;3.78;;
72115;SDS011;59991;52.140;5.428;2022-10-16T02:01:02;5.75;;;3.67;;
72115;SDS011;59991;52.140;5.428;2022-10-16T02:01:36;4.13;;;3.73;;
72115;SDS011;59991;52.140;5.428;2022-10-16T02:02:11;7.55;;;3.63;;
72115;SDS011;59991;52.140;5.428;2022-10-16T02:02:47;6.40;;;3.70;;
72115;SDS011;59991;52.140;5.428;2022-10-16T02:03:24;4.55;;;3.50;;
72115;SDS011;59991;52.140;5.428;2022-10-16T02:04:09;7.25;;;3.58;;
72115;SDS011;59991;52.140;5.428;2022-10-16T02:04:53;5.25;;;4.18;;
72115;SDS011;59991;52.140;5.428;2022-10-16T02:05:33;4.55;;;3.50;;
72115;SDS011;59991;52.140;5.428;2022-10-16T02:06:11;4.45;;;3.47;;
72115;SDS011;59991;52.140;5.428;2022-10-16T02:06:44;5.03;;;3.63;;
72115;SDS011;59991;52.140;5.428;2022-10-16T02:07:19;5.25;;;3.30;;
72115;SDS011;59991;52.140;5.428;2022-10-16T02:07:53;3.93;;;3.53;;
72115;SDS011;59991;52.140;5.428;2022-10-16T02:08:32;4.93;;;3.03;;
72115;SDS011;59991;52.140;5.428;2022-10-16T02:09:07;3.50;;;3.20;;
72115;SDS011;59991;52.140;5.428;2022-10-16T02:09:47;4.63;;;3.53;;
72115;SDS011;59991;52.140;5.428;2022-10-16T02:10:19;4.07;;;3.65;;
72115;SDS011;59991;52.140;5.428;2022-10-16T02:11:03;7.13;;;3.65;;
72115;SDS011;59991;52.140;5.428;2022-10-16T02:11:42;5.30;;;3.45;;
72115;SDS011;59991;52.140;5.428;2022-10-16T02:12:15;6.43;;;3.25;;
72115;SDS011;59991;52.140;5.428;2022-10-16T02:13:03;7.22;;;3.15;;
72115;SDS011;59991;52.140;5.428;2022-10-16T02:13:46;4.25;;;2.75;;
72115;SDS011;59991;52.140;5.428;2022-10-16T02:14:34;5.90;;;2.90;;
72115;SDS011;59991;52.140;5.428;2022-10-16T02:15:08;6.43;;;3.13;;
72115;SDS011;59991;52.140;5.428;2022-10-16T02:15:42;4.75;;;3.00;;
72115;SDS011;59991;52.140;5.428;2022-10-16T02:16:16;4.25;;;2.70;;
72115;SDS011;59991;52.140;5.428;2022-10-16T02:16:54;6.32;;;3.30;;
72115;SDS011;59991;52.140;5.428;2022-10-16T02:17:30;4.35;;;3.20;;
72115;SDS011;59991;52.140;5.428;2022-10-16T02:18:09;4.88;;;2.90;;
72115;SDS011;59991;52.140;5.428;2022-10-16T02:18:43;2.97;;;2.47;;
72115;SDS011;59991;52.140;5.428;2022-10-16T02:19:18;7.53;;;3.10;;
72115;SDS011;59991;52.140;5.428;2022-10-16T02:19:52;3.45;;;2.75;;
72115;SDS011;59991;52.140;5.428;2022-10-16T02:21:17;4.47;;;2.87;;
72115;SDS011;59991;52.140;5.428;2022-10-16T02:22:02;8.25;;;2.70;;
72115;SDS011;59991;52.140;5.428;2022-10-16T02:22:42;6.93;;;2.53;;
72115;SDS011;59991;52.140;5.428;2022-10-16T02:23:22;2.95;;;2.65;;
72115;SDS011;59991;52.140;5.428;2022-10-16T02:25:01;5.82;;;2.40;;
72115;SDS011;59991;52.140;5.428;2022-10-16T02:25:40;3.13;;;2.10;;
72115;SDS011;59991;52.140;5.428;2022-10-16T02:26:16;5.35;;;2.40;;
72115;SDS011;59991;52.140;5.428;2022-10-16T02:27:02;5.07;;;2.63;;
72115;SDS011;59991;52.140;5.428;2022-10-16T02:27:47;5.88;;;2.97;;
72115;SDS011;59991;52.140;5.428;2022-10-16T02:28:47;4.93;;;2.20;;
72115;SDS011;59991;52.140;5.428;2022-10-16T02:29:26;3.78;;;2.20;;
72115;SDS011;59991;52.140;5.428;2022-10-16T02:30:05;4.28;;;2.58;;
72115;SDS011;59991;52.140;5.428;2022-10-16T02:30:56;5.03;;;3.38;;
72115;SDS011;59991;52.140;5.428;2022-10-16T02:31:33;5.25;;;2.40;;
72115;SDS011;59991;52.140;5.428;2022-10-16T02:32:15;7.53;;;2.80;;
72115;SDS011;59991;52.140;5.428;2022-10-16T02:32:50;3.83;;;2.42;;
72115;SDS011;59991;52.140;5.428;2022-10-16T02:33:31;4.15;;;2.30;;
72115;SDS011;59991;52.140;5.428;2022-10-16T02:34:07;3.30;;;2.72;;
72115;SDS011;59991;52.140;5.428;2022-10-16T02:34:43;2.90;;;2.60;;
72115;SDS011;59991;52.140;5.428;2022-10-16T02:35:22;3.37;;;2.53;;
72115;SDS011;59991;52.140;5.428;2022-10-16T02:36:02;2.97;;;2.67;;
72115;SDS011;59991;52.140;5.428;2022-10-16T02:37:42;5.63;;;3.15;;
72115;SDS011;59991;52.140;5.428;2022-10-16T02:38:25;5.20;;;3.08;;
72115;SDS011;59991;52.140;5.428;2022-10-16T02:39:01;4.53;;;2.40;;
72115;SDS011;59991;52.140;5.428;2022-10-16T02:39:43;3.63;;;2.80;;
72115;SDS011;59991;52.140;5.428;2022-10-16T02:40:17;4.10;;;2.80;;
72115;SDS011;59991;52.140;5.428;2022-10-16T02:40:55;4.82;;;2.63;;
72115;SDS011;59991;52.140;5.428;2022-10-16T02:41:35;8.20;;;4.13;;
72115;SDS011;59991;52.140;5.428;2022-10-16T02:42:11;4.33;;;2.10;;
72115;SDS011;59991;52.140;5.428;2022-10-16T02:42:49;3.33;;;2.35;;
72115;SDS011;59991;52.140;5.428;2022-10-16T02:43:23;6.05;;;3.22;;
72115;SDS011;59991;52.140;5.428;2022-10-16T02:44:08;5.55;;;3.83;;
72115;SDS011;59991;52.140;5.428;2022-10-16T02:44:40;2.97;;;2.67;;
72115;SDS011;59991;52.140;5.428;2022-10-16T02:45:12;3.50;;;2.60;;
72115;SDS011;59991;52.140;5.428;2022-10-16T02:45:47;5.13;;;2.35;;
72115;SDS011;59991;52.140;5.428;2022-10-16T02:46:29;2.67;;;2.47;;
72115;SDS011;59991;52.140;5.428;2022-10-16T02:47:10;4.22;;;2.80;;
72115;SDS011;59991;52.140;5.428;2022-10-16T02:47:45;3.15;;;2.47;;
72115;SDS011;59991;52.140;5.428;2022-10-16T02:48:17;5.10;;;2.63;;
72115;SDS011;59991;52.140;5.428;2022-10-16T02:48:50;4.20;;;2.90;;
72115;SDS011;59991;52.140;5.428;2022-10-16T02:49:23;5.03;;;2.65;;
72115;SDS011;59991;52.140;5.428;2022-10-16T02:49:56;4.00;;;2.70;;
72115;SDS011;59991;52.140;5.428;2022-10-16T02:50:27;5.65;;;3.15;;
72115;SDS011;59991;52.140;5.428;2022-10-16T02:51:04;6.35;;;2.83;;
72115;SDS011;59991;52.140;5.428;2022-10-16T02:51:36;3.85;;;2.70;;
72115;SDS011;59991;52.140;5.428;2022-10-16T02:52:14;3.38;;;2.65;;
72115;SDS011;59991;52.140;5.428;2022-10-16T02:53:04;5.35;;;2.67;;
72115;SDS011;59991;52.140;5.428;2022-10-16T02:53:38;2.63;;;2.42;;
72115;SDS011;59991;52.140;5.428;2022-10-16T02:54:17;5.00;;;2.50;;
72115;SDS011;59991;52.140;5.428;2022-10-16T02:54:54;3.08;;;2.60;;
72115;SDS011;59991;52.140;5.428;2022-10-16T02:55:25;4.88;;;2.80;;
72115;SDS011;59991;52.140;5.428;2022-10-16T02:56:09;3.55;;;2.80;;
72115;SDS011;59991;52.140;5.428;2022-10-16T02:56:41;7.45;;;3.08;;
72115;SDS011;59991;52.140;5.428;2022-10-16T02:57:19;3.92;;;2.80;;
72115;SDS011;59991;52.140;5.428;2022-10-16T02:58:02;3.70;;;2.88;;
72115;SDS011;59991;52.140;5.428;2022-10-16T02:58:34;4.43;;;3.15;;
72115;SDS011;59991;52.140;5.428;2022-10-16T02:59:15;4.57;;;3.15;;
72115;SDS011;59991;52.140;5.428;2022-10-16T02:59:47;4.35;;;2.80;;
72115;SDS011;59991;52.140;5.428;2022-10-16T03:00:19;5.47;;;3.40;;
72115;SDS011;59991;52.140;5.428;2022-10-16T03:00:52;5.20;;;3.05;;
72115;SDS011;59991;52.140;5.428;2022-10-16T03:01:33;4.28;;;2.90;;
72115;SDS011;59991;52.140;5.428;2022-10-16T03:02:05;3.97;;;3.15;;
72115;SDS011;59991;52.140;5.428;2022-10-16T03:02:36;6.63;;;3.50;;
72115;SDS011;59991;52.140;5.428;2022-10-16T03:03:10;3.30;;;2.85;;
72115;SDS011;59991;52.140;5.428;2022-10-16T03:03:44;5.60;;;2.95;;
72115;SDS011;59991;52.140;5.428;2022-10-16T03:04:18;3.08;;;2.75;;
72115;SDS011;59991;52.140;5.428;2022-10-16T03:05:00;6.70;;;3.38;;
72115;SDS011;59991;52.140;5.428;2022-10-16T03:05:42;4.88;;;2.50;;
72115;SDS011;59991;52.140;5.428;2022-10-16T03:06:25;5.27;;;3.03;;
72115;SDS011;59991;52.140;5.428;2022-10-16T03:07:05;3.35;;;2.70;;
72115;SDS011;59991;52.140;5.428;2022-10-16T03:07:36;5.10;;;2.50;;
72115;SDS011;59991;52.140;5.428;2022-10-16T03:08:10;5.80;;;3.67;;
72115;SDS011;59991;52.140;5.428;2022-10-16T03:08:51;6.95;;;2.85;;
72115;SDS011;59991;52.140;5.428;2022-10-16T03:09:23;5.43;;;2.90;;
72115;SDS011;59991;52.140;5.428;2022-10-16T03:09:59;5.88;;;2.58;;
72115;SDS011;59991;52.140;5.428;2022-10-16T03:10:32;4.90;;;3.15;;
72115;SDS011;59991;52.140;5.428;2022-10-16T03:11:11;4.00;;;2.90;;
72115;SDS011;59991;52.140;5.428;2022-10-16T03:11:49;7.88;;;4.43;;
72115;SDS011;59991;52.140;5.428;2022-10-16T03:12:27;5.97;;;2.80;;
72115;SDS011;59991;52.140;5.428;2022-10-16T03:13:01;7.78;;;4.68;;
72115;SDS011;59991;52.140;5.428;2022-10-16T03:13:40;5.40;;;2.92;;
72115;SDS011;59991;52.140;5.428;2022-10-16T03:14:22;7.35;;;3.28;;
72115;SDS011;59991;52.140;5.428;2022-10-16T03:14:55;5.30;;;3.08;;
72115;SDS011;59991;52.140;5.428;2022-10-16T03:15:28;5.07;;;3.65;;
72115;SDS011;59991;52.140;5.428;2022-10-16T03:16:07;6.20;;;2.53;;
72115;SDS011;59991;52.140;5.428;2022-10-16T03:16:39;3.80;;;2.85;;
72115;SDS011;59991;52.140;5.428;2022-10-16T03:17:23;4.75;;;3.38;;
72115;SDS011;59991;52.140;5.428;2022-10-16T03:18:02;4.38;;;3.08;;
72115;SDS011;59991;52.140;5.428;2022-10-16T03:18:41;6.13;;;4.17;;
72115;SDS011;59991;52.140;5.428;2022-10-16T03:19:17;3.33;;;2.83;;
72115;SDS011;59991;52.140;5.428;2022-10-16T03:19:49;4.90;;;2.70;;
72115;SDS011;59991;52.140;5.428;2022-10-16T03:20:26;5.32;;;2.80;;
72115;SDS011;59991;52.140;5.428;2022-10-16T03:21:08;3.20;;;2.90;;
72115;SDS011;59991;52.140;5.428;2022-10-16T03:21:44;6.35;;;2.50;;
72115;SDS011;59991;52.140;5.428;2022-10-16T03:22:20;6.00;;;2.90;;
72115;SDS011;59991;52.140;5.428;2022-10-16T03:22:51;3.60;;;3.15;;
72115;SDS011;59991;52.140;5.428;2022-10-16T03:23:26;3.50;;;2.95;;
72115;SDS011;59991;52.140;5.428;2022-10-16T03:24:06;5.30;;;3.00;;
72115;SDS011;59991;52.140;5.428;2022-10-16T03:24:38;3.07;;;2.77;;
72115;SDS011;59991;52.140;5.428;2022-10-16T03:25:12;4.78;;;2.95;;
72115;SDS011;59991;52.140;5.428;2022-10-16T03:25:54;5.22;;;2.92;;
72115;SDS011;59991;52.140;5.428;2022-10-16T03:26:28;4.88;;;3.03;;
72115;SDS011;59991;52.140;5.428;2022-10-16T03:27:06;3.53;;;3.00;;
72115;SDS011;59991;52.140;5.428;2022-10-16T03:27:41;5.70;;;2.90;;
72115;SDS011;59991;52.140;5.428;2022-10-16T03:28:15;4.60;;;2.60;;
72115;SDS011;59991;52.140;5.428;2022-10-16T03:28:49;3.97;;;2.58;;
72115;SDS011;59991;52.140;5.428;2022-10-16T03:29:28;3.33;;;2.80;;
72115;SDS011;59991;52.140;5.428;2022-10-16T03:30:03;3.03;;;2.45;;
72115;SDS011;59991;52.140;5.428;2022-10-16T03:30:38;3.87;;;2.67;;
72115;SDS011;59991;52.140;5.428;2022-10-16T03:31:13;3.50;;;2.60;;
72115;SDS011;59991;52.140;5.428;2022-10-16T03:31:48;4.65;;;2.67;;
72115;SDS011;59991;52.140;5.428;2022-10-16T03:32:29;5.38;;;3.38;;
72115;SDS011;59991;52.140;5.428;2022-10-16T03:33:07;5.72;;;2.42;;
72115;SDS011;59991;52.140;5.428;2022-10-16T03:33:39;9.15;;;3.50;;
72115;SDS011;59991;52.140;5.428;2022-10-16T03:34:12;3.50;;;2.70;;
72115;SDS011;59991;52.140;5.428;2022-10-16T03:34:51;3.05;;;2.75;;
72115;SDS011;59991;52.140;5.428;2022-10-16T03:35:33;6.82;;;2.63;;
72115;SDS011;59991;52.140;5.428;2022-10-16T03:36:11;3.45;;;2.45;;
72115;SDS011;59991;52.140;5.428;2022-10-16T03:36:43;3.80;;;2.70;;
72115;SDS011;59991;52.140;5.428;2022-10-16T03:37:14;3.13;;;2.80;;
72115;SDS011;59991;52.140;5.428;2022-10-16T03:37:48;3.63;;;2.53;;
72115;SDS011;59991;52.140;5.428;2022-10-16T03:38:24;3.55;;;3.25;;
72115;SDS011;59991;52.140;5.428;2022-10-16T03:39:06;2.90;;;2.35;;
72115;SDS011;59991;52.140;5.428;2022-10-16T03:39:40;3.70;;;2.78;;
72115;SDS011;59991;52.140;5.428;2022-10-16T03:40:12;5.40;;;2.88;;
72115;SDS011;59991;52.140;5.428;2022-10-16T03:40:50;3.80;;;3.00;;
72115;SDS011;59991;52.140;5.428;2022-10-16T03:41:41;3.53;;;3.10;;
72115;SDS011;59991;52.140;5.428;2022-10-16T03:42:20;5.22;;;2.35;;
72115;SDS011;59991;52.140;5.428;2022-10-16T03:42:54;4.57;;;2.80;;
72115;SDS011;59991;52.140;5.428;2022-10-16T03:43:42;3.75;;;2.70;;
72115;SDS011;59991;52.140;5.428;2022-10-16T03:44:23;5.90;;;2.88;;
72115;SDS011;59991;52.140;5.428;2022-10-16T03:44:59;8.55;;;3.10;;
72115;SDS011;59991;52.140;5.428;2022-10-16T03:45:44;4.38;;;2.60;;
72115;SDS011;59991;52.140;5.428;2022-10-16T03:46:28;3.42;;;2.75;;
72115;SDS011;59991;52.140;5.428;2022-10-16T03:47:05;7.38;;;3.35;;
72115;SDS011;59991;52.140;5.428;2022-10-16T03:47:39;6.22;;;3.45;;
72115;SDS011;59991;52.140;5.428;2022-10-16T03:48:19;2.75;;;2.30;;
72115;SDS011;59991;52.140;5.428;2022-10-16T03:48:55;3.42;;;2.63;;
72115;SDS011;59991;52.140;5.428;2022-10-16T03:49:35;5.30;;;2.80;;
72115;SDS011;59991;52.140;5.428;2022-10-16T03:50:17;4.18;;;3.20;;
72115;SDS011;59991;52.140;5.428;2022-10-16T03:50:56;6.43;;;3.08;;
72115;SDS011;59991;52.140;5.428;2022-10-16T03:51:37;4.63;;;2.72;;
72115;SDS011;59991;52.140;5.428;2022-10-16T03:52:23;3.72;;;2.83;;
72115;SDS011;59991;52.140;5.428;2022-10-16T03:53:03;7.53;;;3.22;;
72115;SDS011;59991;52.140;5.428;2022-10-16T03:53:42;3.17;;;2.88;;
72115;SDS011;59991;52.140;5.428;2022-10-16T03:54:22;6.85;;;3.50;;
72115;SDS011;59991;52.140;5.428;2022-10-16T03:55:02;4.55;;;4.05;;
72115;SDS011;59991;52.140;5.428;2022-10-16T03:55:46;5.40;;;3.53;;
72115;SDS011;59991;52.140;5.428;2022-10-16T03:56:29;6.30;;;3.00;;
72115;SDS011;59991;52.140;5.428;2022-10-16T03:57:05;7.13;;;3.42;;
72115;SDS011;59991;52.140;5.428;2022-10-16T03:57:46;5.35;;;2.80;;
72115;SDS011;59991;52.140;5.428;2022-10-16T03:58:28;9.95;;;3.42;;